sensor_id;sensor_type;location;lat;lon;timestamp;temperature;humidity
26621;DHT22;14253;44.840;10.444;2023-02-05T00:01:26;3.00;99.90
26621;DHT22;14253;44.840;10.444;2023-02-05T00:03:51;3.00;99.90
26621;DHT22;14253;44.840;10.444;2023-02-05T00:06:17;2.90;99.90
26621;DHT22;14253;44.840;10.444;2023-02-05T00:08:43;3.00;99.90
26621;DHT22;14253;44.840;10.444;2023-02-05T00:11:09;3.00;99.90
26621;DHT22;14253;44.840;10.444;2023-02-05T00:13:36;2.90;99.90
26621;DHT22;14253;44.840;10.444;2023-02-05T00:16:17;2.80;99.90
26621;DHT22;14253;44.840;10.444;2023-02-05T00:18:44;2.70;99.90
26621;DHT22;14253;44.840;10.444;2023-02-05T00:21:11;2.60;99.90
26621;DHT22;14253;44.840;10.444;2023-02-05T00:23:37;2.40;99.90
26621;DHT22;14253;44.840;10.444;2023-02-05T00:26:04;2.40;99.90
26621;DHT22;14253;44.840;10.444;2023-02-05T00:28:32;2.30;99.90
26621;DHT22;14253;44.840;10.444;2023-02-05T00:30:58;2.20;99.90
26621;DHT22;14253;44.840;10.444;2023-02-05T00:33:24;2.20;99.90
26621;DHT22;14253;44.840;10.444;2023-02-05T00:35:50;2.30;99.90
26621;DHT22;14253;44.840;10.444;2023-02-05T00:38:16;2.30;99.90
26621;DHT22;14253;44.840;10.444;2023-02-05T00:40:42;2.20;99.90
26621;DHT22;14253;44.840;10.444;2023-02-05T00:43:09;2.20;99.90
26621;DHT22;14253;44.840;10.444;2023-02-05T00:45:35;2.10;99.90
26621;DHT22;14253;44.840;10.444;2023-02-05T00:48:02;2.00;99.90
26621;DHT22;14253;44.840;10.444;2023-02-05T00:50:28;1.90;99.90
26621;DHT22;14253;44.840;10.444;2023-02-05T00:52:55;2.00;99.90
26621;DHT22;14253;44.840;10.444;2023-02-05T00:55:22;1.90;99.90
26621;DHT22;14253;44.840;10.444;2023-02-05T00:57:48;1.90;99.90
26621;DHT22;14253;44.840;10.444;2023-02-05T01:00:15;1.90;99.90
26621;DHT22;14253;44.840;10.444;2023-02-05T01:02:41;1.70;99.90
26621;DHT22;14253;44.840;10.444;2023-02-05T01:05:08;1.80;99.90
26621;DHT22;14253;44.840;10.444;2023-02-05T01:07:34;1.80;99.90
26621;DHT22;14253;44.840;10.444;2023-02-05T01:10:00;1.80;99.90
26621;DHT22;14253;44.840;10.444;2023-02-05T01:12:26;1.80;99.90
26621;DHT22;14253;44.840;10.444;2023-02-05T01:14:53;1.70;99.90
26621;DHT22;14253;44.840;10.444;2023-02-05T01:17:19;1.60;99.90
26621;DHT22;14253;44.840;10.444;2023-02-05T01:19:45;1.70;99.90
26621;DHT22;14253;44.840;10.444;2023-02-05T01:22:11;1.70;99.90
26621;DHT22;14253;44.840;10.444;2023-02-05T01:24:37;1.70;99.90
26621;DHT22;14253;44.840;10.444;2023-02-05T01:27:03;1.70;99.90
26621;DHT22;14253;44.840;10.444;2023-02-05T01:29:29;1.70;99.90
26621;DHT22;14253;44.840;10.444;2023-02-05T01:31:56;1.70;99.90
26621;DHT22;14253;44.840;10.444;2023-02-05T01:34:22;1.70;99.90
26621;DHT22;14253;44.840;10.444;2023-02-05T01:36:48;1.70;99.90
26621;DHT22;14253;44.840;10.444;2023-02-05T01:39:14;1.60;99.90
26621;DHT22;14253;44.840;10.444;2023-02-05T01:41:41;1.60;99.90
26621;DHT22;14253;44.840;10.444;2023-02-05T01:44:14;1.60;99.90
26621;DHT22;14253;44.840;10.444;2023-02-05T01:46:45;1.70;99.90
26621;DHT22;14253;44.840;10.444;2023-02-05T01:49:22;1.70;99.90
26621;DHT22;14253;44.840;10.444;2023-02-05T01:51:50;1.70;99.90
26621;DHT22;14253;44.840;10.444;2023-02-05T01:54:19;1.70;99.90
26621;DHT22;14253;44.840;10.444;2023-02-05T01:56:51;1.70;99.90
26621;DHT22;14253;44.840;10.444;2023-02-05T01:59:21;1.60;99.90
26621;DHT22;14253;44.840;10.444;2023-02-05T02:01:49;1.60;99.90
26621;DHT22;14253;44.840;10.444;2023-02-05T02:04:25;1.60;99.90
26621;DHT22;14253;44.840;10.444;2023-02-05T02:06:55;1.50;99.90
26621;DHT22;14253;44.840;10.444;2023-02-05T02:09:21;1.50;99.90
26621;DHT22;14253;44.840;10.444;2023-02-05T02:11:47;1.60;99.90
26621;DHT22;14253;44.840;10.444;2023-02-05T02:14:14;1.60;99.90
26621;DHT22;14253;44.840;10.444;2023-02-05T02:16:40;1.60;99.90
26621;DHT22;14253;44.840;10.444;2023-02-05T02:19:14;1.70;99.90
26621;DHT22;14253;44.840;10.444;2023-02-05T02:22:24;1.70;99.90
26621;DHT22;14253;44.840;10.444;2023-02-05T02:27:46;1.80;99.90
26621;DHT22;14253;44.840;10.444;2023-02-05T02:30:34;1.90;99.90
26621;DHT22;14253;44.840;10.444;2023-02-05T02:33:21;1.90;99.90
26621;DHT22;14253;44.840;10.444;2023-02-05T02:35:57;1.80;99.90
26621;DHT22;14253;44.840;10.444;2023-02-05T02:38:32;1.70;99.90
26621;DHT22;14253;44.840;10.444;2023-02-05T02:42:22;1.50;99.90
26621;DHT22;14253;44.840;10.444;2023-02-05T02:44:33;1.40;99.90
26621;DHT22;14253;44.840;10.444;2023-02-05T02:47:11;1.30;99.90
26621;DHT22;14253;44.840;10.444;2023-02-05T02:49:43;1.30;99.90
26621;DHT22;14253;44.840;10.444;2023-02-05T02:52:12;1.20;99.90
26621;DHT22;14253;44.840;10.444;2023-02-05T02:54:43;1.10;99.90
26621;DHT22;14253;44.840;10.444;2023-02-05T02:57:14;1.00;99.90
26621;DHT22;14253;44.840;10.444;2023-02-05T02:59:44;1.00;99.90
26621;DHT22;14253;44.840;10.444;2023-02-05T03:02:13;1.00;99.90
26621;DHT22;14253;44.840;10.444;2023-02-05T03:04:44;1.00;99.90
26621;DHT22;14253;44.840;10.444;2023-02-05T03:07:12;1.00;99.90
26621;DHT22;14253;44.840;10.444;2023-02-05T03:09:49;1.00;99.90
26621;DHT22;14253;44.840;10.444;2023-02-05T03:12:19;1.00;99.90
26621;DHT22;14253;44.840;10.444;2023-02-05T03:14:45;0.80;99.90
26621;DHT22;14253;44.840;10.444;2023-02-05T03:17:12;0.70;99.90
26621;DHT22;14253;44.840;10.444;2023-02-05T03:19:49;0.60;99.90
26621;DHT22;14253;44.840;10.444;2023-02-05T03:22:17;0.50;99.90
26621;DHT22;14253;44.840;10.444;2023-02-05T03:24:43;0.50;99.90
26621;DHT22;14253;44.840;10.444;2023-02-05T03:27:09;0.40;99.90
26621;DHT22;14253;44.840;10.444;2023-02-05T03:29:38;0.40;99.90
26621;DHT22;14253;44.840;10.444;2023-02-05T03:46:33;0.30;99.90
26621;DHT22;14253;44.840;10.444;2023-02-05T03:52:12;0.20;99.90
26621;DHT22;14253;44.840;10.444;2023-02-05T03:59:48;0.20;99.90
26621;DHT22;14253;44.840;10.444;2023-02-05T04:02:16;0.20;99.90
26621;DHT22;14253;44.840;10.444;2023-02-05T04:04:45;0.30;99.90
26621;DHT22;14253;44.840;10.444;2023-02-05T04:07:12;0.20;99.90
26621;DHT22;14253;44.840;10.444;2023-02-05T04:09:39;0.30;99.90
26621;DHT22;14253;44.840;10.444;2023-02-05T04:12:05;0.30;99.90
26621;DHT22;14253;44.840;10.444;2023-02-05T04:14:32;0.20;99.90
26621;DHT22;14253;44.840;10.444;2023-02-05T04:16:59;0.20;99.90
26621;DHT22;14253;44.840;10.444;2023-02-05T04:19:26;0.30;99.90
26621;DHT22;14253;44.840;10.444;2023-02-05T04:21:56;0.20;99.90
26621;DHT22;14253;44.840;10.444;2023-02-05T04:24:24;0.10;99.90
26621;DHT22;14253;44.840;10.444;2023-02-05T04:26:51;0.00;99.90
26621;DHT22;14253;44.840;10.444;2023-02-05T04:29:18;0.00;99.90
26621;DHT22;14253;44.840;10.444;2023-02-05T04:31:47;0.00;99.90
26621;DHT22;14253;44.840;10.444;2023-02-05T04:34:13;0.10;99.90
26621;DHT22;14253;44.840;10.444;2023-02-05T04:36:39;0.10;99.90
26621;DHT22;14253;44.840;10.444;2023-02-05T04:39:06;0.10;99.90
26621;DHT22;14253;44.840;10.444;2023-02-05T04:41:32;0.20;99.90
26621;DHT22;14253;44.840;10.444;2023-02-05T04:43:57;-0.10;99.90
26621;DHT22;14253;44.840;10.444;2023-02-05T04:46:23;-0.40;99.90
26621;DHT22;14253;44.840;10.444;2023-02-05T04:48:49;-0.60;99.90
26621;DHT22;14253;44.840;10.444;2023-02-05T04:51:15;-0.80;99.90
26621;DHT22;14253;44.840;10.444;2023-02-05T04:53:41;-0.90;99.90
26621;DHT22;14253;44.840;10.444;2023-02-05T04:56:15;-0.80;99.90
26621;DHT22;14253;44.840;10.444;2023-02-05T04:58:42;-0.80;99.90
26621;DHT22;14253;44.840;10.444;2023-02-05T05:01:17;-0.80;99.90
26621;DHT22;14253;44.840;10.444;2023-02-05T05:03:43;-0.90;99.90
26621;DHT22;14253;44.840;10.444;2023-02-05T05:06:09;-1.00;99.90
26621;DHT22;14253;44.840;10.444;2023-02-05T05:08:36;-0.90;99.90
26621;DHT22;14253;44.840;10.444;2023-02-05T05:11:11;-1.00;99.90
26621;DHT22;14253;44.840;10.444;2023-02-05T05:13:37;-0.90;99.90
26621;DHT22;14253;44.840;10.444;2023-02-05T05:16:04;-0.90;99.90
26621;DHT22;14253;44.840;10.444;2023-02-05T05:18:30;-0.80;99.90
26621;DHT22;14253;44.840;10.444;2023-02-05T05:20:57;-0.70;99.90
26621;DHT22;14253;44.840;10.444;2023-02-05T05:23:23;-0.80;99.90
26621;DHT22;14253;44.840;10.444;2023-02-05T05:25:49;-0.80;99.90
26621;DHT22;14253;44.840;10.444;2023-02-05T05:28:15;-0.60;99.90
26621;DHT22;14253;44.840;10.444;2023-02-05T05:30:43;-0.60;99.90
26621;DHT22;14253;44.840;10.444;2023-02-05T05:33:10;-0.70;99.90
26621;DHT22;14253;44.840;10.444;2023-02-05T05:35:37;-0.60;99.90
26621;DHT22;14253;44.840;10.444;2023-02-05T05:38:03;-0.70;99.90
26621;DHT22;14253;44.840;10.444;2023-02-05T05:40:30;-0.50;99.90
26621;DHT22;14253;44.840;10.444;2023-02-05T05:43:17;-0.50;99.90
26621;DHT22;14253;44.840;10.444;2023-02-05T05:46:02;-0.50;99.90
26621;DHT22;14253;44.840;10.444;2023-02-05T05:48:29;-0.40;99.90
26621;DHT22;14253;44.840;10.444;2023-02-05T05:50:55;-0.30;99.90
26621;DHT22;14253;44.840;10.444;2023-02-05T05:53:21;-0.40;99.90
26621;DHT22;14253;44.840;10.444;2023-02-05T05:55:47;-0.40;99.90
26621;DHT22;14253;44.840;10.444;2023-02-05T05:58:13;-0.30;99.90
26621;DHT22;14253;44.840;10.444;2023-02-05T06:00:40;-0.30;99.90
26621;DHT22;14253;44.840;10.444;2023-02-05T06:03:08;-0.30;99.90
26621;DHT22;14253;44.840;10.444;2023-02-05T06:05:35;-0.40;99.90
26621;DHT22;14253;44.840;10.444;2023-02-05T06:08:00;-0.50;99.90
26621;DHT22;14253;44.840;10.444;2023-02-05T06:10:26;-0.50;99.90
26621;DHT22;14253;44.840;10.444;2023-02-05T06:12:52;-0.40;99.90
26621;DHT22;14253;44.840;10.444;2023-02-05T06:15:20;-0.40;99.90
26621;DHT22;14253;44.840;10.444;2023-02-05T06:17:46;-0.40;99.90
26621;DHT22;14253;44.840;10.444;2023-02-05T06:20:13;-0.20;99.90
26621;DHT22;14253;44.840;10.444;2023-02-05T06:22:40;-0.30;99.90
26621;DHT22;14253;44.840;10.444;2023-02-05T06:25:06;-0.30;99.90
26621;DHT22;14253;44.840;10.444;2023-02-05T06:27:32;-0.40;99.90
26621;DHT22;14253;44.840;10.444;2023-02-05T06:29:58;-0.40;99.90
26621;DHT22;14253;44.840;10.444;2023-02-05T06:32:24;-0.40;99.90
26621;DHT22;14253;44.840;10.444;2023-02-05T06:34:50;-0.30;99.90
26621;DHT22;14253;44.840;10.444;2023-02-05T06:37:16;-0.40;99.90
26621;DHT22;14253;44.840;10.444;2023-02-05T06:39:42;-0.40;99.90
26621;DHT22;14253;44.840;10.444;2023-02-05T06:42:08;-0.50;99.90
26621;DHT22;14253;44.840;10.444;2023-02-05T06:44:34;-0.50;99.90
26621;DHT22;14253;44.840;10.444;2023-02-05T06:47:00;-0.50;99.90
26621;DHT22;14253;44.840;10.444;2023-02-05T06:49:27;-0.50;99.90
26621;DHT22;14253;44.840;10.444;2023-02-05T06:51:53;-0.50;99.90
26621;DHT22;14253;44.840;10.444;2023-02-05T06:54:19;-0.40;99.90
26621;DHT22;14253;44.840;10.444;2023-02-05T06:56:45;-0.50;99.90
26621;DHT22;14253;44.840;10.444;2023-02-05T06:59:10;-0.50;99.90
26621;DHT22;14253;44.840;10.444;2023-02-05T07:01:36;-0.40;99.90
26621;DHT22;14253;44.840;10.444;2023-02-05T07:04:02;-0.30;99.90
26621;DHT22;14253;44.840;10.444;2023-02-05T07:06:28;-0.30;99.90
26621;DHT22;14253;44.840;10.444;2023-02-05T07:08:54;-0.40;99.90
26621;DHT22;14253;44.840;10.444;2023-02-05T07:11:21;-0.40;99.90
26621;DHT22;14253;44.840;10.444;2023-02-05T07:13:47;-0.30;99.90
26621;DHT22;14253;44.840;10.444;2023-02-05T07:16:13;-0.20;99.90
26621;DHT22;14253;44.840;10.444;2023-02-05T07:18:39;-0.10;99.90
26621;DHT22;14253;44.840;10.444;2023-02-05T07:21:15;-0.10;99.90
26621;DHT22;14253;44.840;10.444;2023-02-05T07:23:41;0.00;99.90
26621;DHT22;14253;44.840;10.444;2023-02-05T07:26:13;0.20;99.90
26621;DHT22;14253;44.840;10.444;2023-02-05T07:28:39;0.40;99.90
26621;DHT22;14253;44.840;10.444;2023-02-05T07:31:11;0.50;99.90
26621;DHT22;14253;44.840;10.444;2023-02-05T07:33:40;0.70;99.90
26621;DHT22;14253;44.840;10.444;2023-02-05T07:36:08;0.90;99.90
26621;DHT22;14253;44.840;10.444;2023-02-05T07:38:35;1.10;99.90
26621;DHT22;14253;44.840;10.444;2023-02-05T07:41:03;1.40;99.90
26621;DHT22;14253;44.840;10.444;2023-02-05T07:43:29;1.50;99.90
26621;DHT22;14253;44.840;10.444;2023-02-05T07:46:01;1.60;99.90
26621;DHT22;14253;44.840;10.444;2023-02-05T07:48:28;1.70;99.90
26621;DHT22;14253;44.840;10.444;2023-02-05T07:50:54;1.80;99.90
26621;DHT22;14253;44.840;10.444;2023-02-05T07:53:20;1.80;99.90
26621;DHT22;14253;44.840;10.444;2023-02-05T07:55:46;1.90;99.90
26621;DHT22;14253;44.840;10.444;2023-02-05T07:58:12;2.10;99.90
26621;DHT22;14253;44.840;10.444;2023-02-05T08:00:39;2.40;99.90
26621;DHT22;14253;44.840;10.444;2023-02-05T08:03:05;2.50;99.90
26621;DHT22;14253;44.840;10.444;2023-02-05T08:05:31;2.60;99.90
26621;DHT22;14253;44.840;10.444;2023-02-05T08:07:57;2.60;99.90
26621;DHT22;14253;44.840;10.444;2023-02-05T08:10:23;2.60;99.90
26621;DHT22;14253;44.840;10.444;2023-02-05T08:12:49;2.50;99.90
26621;DHT22;14253;44.840;10.444;2023-02-05T08:15:15;2.50;99.90
26621;DHT22;14253;44.840;10.444;2023-02-05T08:17:41;2.40;99.90
26621;DHT22;14253;44.840;10.444;2023-02-05T08:20:07;2.60;99.90
26621;DHT22;14253;44.840;10.444;2023-02-05T08:22:36;2.70;99.90
26621;DHT22;14253;44.840;10.444;2023-02-05T08:25:06;2.80;99.90
26621;DHT22;14253;44.840;10.444;2023-02-05T08:27:34;2.80;99.90
26621;DHT22;14253;44.840;10.444;2023-02-05T08:30:05;3.10;99.90
26621;DHT22;14253;44.840;10.444;2023-02-05T08:32:31;3.10;99.90
26621;DHT22;14253;44.840;10.444;2023-02-05T08:34:57;3.20;99.90
26621;DHT22;14253;44.840;10.444;2023-02-05T08:37:24;3.30;99.90
26621;DHT22;14253;44.840;10.444;2023-02-05T08:39:50;3.40;99.90
26621;DHT22;14253;44.840;10.444;2023-02-05T08:42:16;3.40;99.90
26621;DHT22;14253;44.840;10.444;2023-02-05T08:44:42;3.50;99.90
26621;DHT22;14253;44.840;10.444;2023-02-05T08:47:07;3.80;99.90
26621;DHT22;14253;44.840;10.444;2023-02-05T08:49:33;4.00;99.90
26621;DHT22;14253;44.840;10.444;2023-02-05T08:51:59;4.10;99.90
26621;DHT22;14253;44.840;10.444;2023-02-05T08:54:25;4.20;99.90
26621;DHT22;14253;44.840;10.444;2023-02-05T08:56:51;4.50;99.90
26621;DHT22;14253;44.840;10.444;2023-02-05T08:59:18;4.70;99.90
26621;DHT22;14253;44.840;10.444;2023-02-05T09:01:44;4.80;99.90
26621;DHT22;14253;44.840;10.444;2023-02-05T09:04:19;4.70;99.90
26621;DHT22;14253;44.840;10.444;2023-02-05T09:06:45;4.70;99.90
26621;DHT22;14253;44.840;10.444;2023-02-05T09:09:12;4.70;99.90
26621;DHT22;14253;44.840;10.444;2023-02-05T09:11:38;4.70;99.90
26621;DHT22;14253;44.840;10.444;2023-02-05T09:14:05;4.80;99.90
26621;DHT22;14253;44.840;10.444;2023-02-05T09:16:32;4.70;99.90
26621;DHT22;14253;44.840;10.444;2023-02-05T09:18:58;4.50;99.90
26621;DHT22;14253;44.840;10.444;2023-02-05T09:21:25;4.50;99.90
26621;DHT22;14253;44.840;10.444;2023-02-05T09:23:52;4.50;99.90
26621;DHT22;14253;44.840;10.444;2023-02-05T09:26:18;4.60;99.90
26621;DHT22;14253;44.840;10.444;2023-02-05T09:28:44;4.70;99.90
26621;DHT22;14253;44.840;10.444;2023-02-05T09:31:15;4.60;99.90
26621;DHT22;14253;44.840;10.444;2023-02-05T09:33:42;4.70;99.90
26621;DHT22;14253;44.840;10.444;2023-02-05T09:36:19;4.70;99.90
26621;DHT22;14253;44.840;10.444;2023-02-05T09:38:46;4.80;99.90
26621;DHT22;14253;44.840;10.444;2023-02-05T09:43:55;4.90;99.90
26621;DHT22;14253;44.840;10.444;2023-02-05T09:49:44;5.10;99.90
26621;DHT22;14253;44.840;10.444;2023-02-05T09:52:22;5.00;99.90
26621;DHT22;14253;44.840;10.444;2023-02-05T09:54:56;5.10;99.90
26621;DHT22;14253;44.840;10.444;2023-02-05T09:57:42;5.10;99.90
26621;DHT22;14253;44.840;10.444;2023-02-05T10:00:32;5.10;99.90
26621;DHT22;14253;44.840;10.444;2023-02-05T10:03:22;5.30;99.90
26621;DHT22;14253;44.840;10.444;2023-02-05T10:15:07;5.40;99.90
26621;DHT22;14253;44.840;10.444;2023-02-05T10:26:26;5.90;99.90
26621;DHT22;14253;44.840;10.444;2023-02-05T10:29:27;5.90;99.90
26621;DHT22;14253;44.840;10.444;2023-02-05T10:32:20;5.90;99.90
26621;DHT22;14253;44.840;10.444;2023-02-05T10:34:57;5.90;99.90
26621;DHT22;14253;44.840;10.444;2023-02-05T10:37:44;6.00;99.90
26621;DHT22;14253;44.840;10.444;2023-02-05T10:40:21;6.00;99.90
26621;DHT22;14253;44.840;10.444;2023-02-05T10:43:00;6.10;99.90
26621;DHT22;14253;44.840;10.444;2023-02-05T10:45:29;6.20;99.90
26621;DHT22;14253;44.840;10.444;2023-02-05T11:02:06;6.80;99.90
26621;DHT22;14253;44.840;10.444;2023-02-05T11:04:55;7.00;99.90
26621;DHT22;14253;44.840;10.444;2023-02-05T11:10:25;7.00;99.90
26621;DHT22;14253;44.840;10.444;2023-02-05T11:13:34;7.00;99.90
26621;DHT22;14253;44.840;10.444;2023-02-05T11:16:33;7.10;99.90
26621;DHT22;14253;44.840;10.444;2023-02-05T11:18:46;7.20;99.90
26621;DHT22;14253;44.840;10.444;2023-02-05T11:21:19;7.30;99.90
26621;DHT22;14253;44.840;10.444;2023-02-05T11:23:55;7.30;99.90
26621;DHT22;14253;44.840;10.444;2023-02-05T11:26:37;7.40;99.90
26621;DHT22;14253;44.840;10.444;2023-02-05T11:36:56;8.00;99.90
26621;DHT22;14253;44.840;10.444;2023-02-05T11:39:36;8.10;99.90
26621;DHT22;14253;44.840;10.444;2023-02-05T11:42:06;8.30;99.90
26621;DHT22;14253;44.840;10.444;2023-02-05T11:44:36;8.30;99.90
26621;DHT22;14253;44.840;10.444;2023-02-05T11:47:08;8.40;99.90
26621;DHT22;14253;44.840;10.444;2023-02-05T11:49:35;8.50;99.90
26621;DHT22;14253;44.840;10.444;2023-02-05T11:59:32;8.60;99.90
26621;DHT22;14253;44.840;10.444;2023-02-05T12:05:03;8.80;99.90
26621;DHT22;14253;44.840;10.444;2023-02-05T12:10:42;8.80;99.90
26621;DHT22;14253;44.840;10.444;2023-02-05T12:39:10;9.40;99.90
26621;DHT22;14253;44.840;10.444;2023-02-05T12:50:13;9.90;99.90
26621;DHT22;14253;44.840;10.444;2023-02-05T12:53:06;9.90;99.90
26621;DHT22;14253;44.840;10.444;2023-02-05T12:56:02;9.80;99.90
26621;DHT22;14253;44.840;10.444;2023-02-05T12:58:42;9.70;99.90
26621;DHT22;14253;44.840;10.444;2023-02-05T13:01:36;9.70;99.90
26621;DHT22;14253;44.840;10.444;2023-02-05T13:04:07;9.70;99.90
26621;DHT22;14253;44.840;10.444;2023-02-05T13:13:35;9.70;99.90
26621;DHT22;14253;44.840;10.444;2023-02-05T13:16:08;9.90;99.90
26621;DHT22;14253;44.840;10.444;2023-02-05T13:18:41;9.90;99.90
26621;DHT22;14253;44.840;10.444;2023-02-05T13:21:16;9.90;99.90
26621;DHT22;14253;44.840;10.444;2023-02-05T13:24:30;9.90;99.90
26621;DHT22;14253;44.840;10.444;2023-02-05T13:33:54;10.10;99.90
26621;DHT22;14253;44.840;10.444;2023-02-05T14:15:34;9.60;99.90
26621;DHT22;14253;44.840;10.444;2023-02-05T14:35:36;9.90;99.90
26621;DHT22;14253;44.840;10.444;2023-02-05T14:41:21;10.50;99.90
26621;DHT22;14253;44.840;10.444;2023-02-05T14:43:59;10.40;99.90
26621;DHT22;14253;44.840;10.444;2023-02-05T14:46:38;10.80;99.90
26621;DHT22;14253;44.840;10.444;2023-02-05T14:58:45;9.60;99.90
26621;DHT22;14253;44.840;10.444;2023-02-05T15:13:24;9.10;99.90
26621;DHT22;14253;44.840;10.444;2023-02-05T15:23:59;10.10;99.90
26621;DHT22;14253;44.840;10.444;2023-02-05T15:27:12;9.40;99.90
26621;DHT22;14253;44.840;10.444;2023-02-05T15:30:17;8.90;99.90
26621;DHT22;14253;44.840;10.444;2023-02-05T15:40:29;8.40;99.90
26621;DHT22;14253;44.840;10.444;2023-02-05T15:49:51;8.10;99.90
26621;DHT22;14253;44.840;10.444;2023-02-05T16:03:01;7.40;99.90
26621;DHT22;14253;44.840;10.444;2023-02-05T16:05:30;7.20;99.90
26621;DHT22;14253;44.840;10.444;2023-02-05T16:11:28;7.10;99.90
26621;DHT22;14253;44.840;10.444;2023-02-05T16:14:32;7.00;99.90
26621;DHT22;14253;44.840;10.444;2023-02-05T16:17:13;6.90;99.90
26621;DHT22;14253;44.840;10.444;2023-02-05T16:19:56;6.80;99.90
26621;DHT22;14253;44.840;10.444;2023-02-05T16:22:58;6.60;99.90
26621;DHT22;14253;44.840;10.444;2023-02-05T16:25:51;6.50;99.90
26621;DHT22;14253;44.840;10.444;2023-02-05T16:28:57;6.40;99.90
26621;DHT22;14253;44.840;10.444;2023-02-05T16:31:28;6.30;99.90
26621;DHT22;14253;44.840;10.444;2023-02-05T16:33:57;6.20;99.90
26621;DHT22;14253;44.840;10.444;2023-02-05T16:36:36;6.10;99.90
26621;DHT22;14253;44.840;10.444;2023-02-05T16:42:03;5.90;99.90
26621;DHT22;14253;44.840;10.444;2023-02-05T16:44:36;5.80;99.90
26621;DHT22;14253;44.840;10.444;2023-02-05T16:47:18;5.70;99.90
26621;DHT22;14253;44.840;10.444;2023-02-05T16:49:46;5.70;99.90
26621;DHT22;14253;44.840;10.444;2023-02-05T16:52:27;5.60;99.90
26621;DHT22;14253;44.840;10.444;2023-02-05T16:54:53;5.50;99.90
26621;DHT22;14253;44.840;10.444;2023-02-05T16:57:29;5.40;99.90
26621;DHT22;14253;44.840;10.444;2023-02-05T16:59:59;5.30;99.90
26621;DHT22;14253;44.840;10.444;2023-02-05T17:02:34;5.30;99.90
26621;DHT22;14253;44.840;10.444;2023-02-05T17:05:33;5.20;99.90
26621;DHT22;14253;44.840;10.444;2023-02-05T17:08:02;5.20;99.90
26621;DHT22;14253;44.840;10.444;2023-02-05T17:10:29;5.10;99.90
26621;DHT22;14253;44.840;10.444;2023-02-05T17:12:58;5.10;99.90
26621;DHT22;14253;44.840;10.444;2023-02-05T17:15:37;5.10;99.90
26621;DHT22;14253;44.840;10.444;2023-02-05T17:18:27;4.90;99.90
26621;DHT22;14253;44.840;10.444;2023-02-05T17:21:18;4.90;99.90
26621;DHT22;14253;44.840;10.444;2023-02-05T17:23:50;4.80;99.90
26621;DHT22;14253;44.840;10.444;2023-02-05T17:26:17;4.80;99.90
26621;DHT22;14253;44.840;10.444;2023-02-05T17:28:57;4.80;99.90
26621;DHT22;14253;44.840;10.444;2023-02-05T17:31:24;4.80;99.90
26621;DHT22;14253;44.840;10.444;2023-02-05T17:33:52;4.80;99.90
26621;DHT22;14253;44.840;10.444;2023-02-05T17:36:18;4.70;99.90
26621;DHT22;14253;44.840;10.444;2023-02-05T17:38:45;4.70;99.90
26621;DHT22;14253;44.840;10.444;2023-02-05T17:41:30;4.70;99.90
26621;DHT22;14253;44.840;10.444;2023-02-05T17:44:16;4.70;99.90
26621;DHT22;14253;44.840;10.444;2023-02-05T17:46:43;4.70;99.90
26621;DHT22;14253;44.840;10.444;2023-02-05T17:49:09;4.60;99.90
26621;DHT22;14253;44.840;10.444;2023-02-05T17:51:35;4.60;99.90
26621;DHT22;14253;44.840;10.444;2023-02-05T17:54:15;4.60;99.90
26621;DHT22;14253;44.840;10.444;2023-02-05T17:56:42;4.60;99.90
26621;DHT22;14253;44.840;10.444;2023-02-05T17:59:14;4.50;99.90
26621;DHT22;14253;44.840;10.444;2023-02-05T18:01:40;4.50;99.90
26621;DHT22;14253;44.840;10.444;2023-02-05T18:04:06;4.40;99.90
26621;DHT22;14253;44.840;10.444;2023-02-05T18:06:33;4.40;99.90
26621;DHT22;14253;44.840;10.444;2023-02-05T18:09:00;4.30;99.90
26621;DHT22;14253;44.840;10.444;2023-02-05T18:11:26;4.30;99.90
26621;DHT22;14253;44.840;10.444;2023-02-05T18:13:52;4.30;99.90
26621;DHT22;14253;44.840;10.444;2023-02-05T18:16:18;4.20;99.90
26621;DHT22;14253;44.840;10.444;2023-02-05T18:18:44;4.20;99.90
26621;DHT22;14253;44.840;10.444;2023-02-05T18:21:10;4.20;99.90
26621;DHT22;14253;44.840;10.444;2023-02-05T18:23:36;4.20;99.90
26621;DHT22;14253;44.840;10.444;2023-02-05T18:26:04;4.20;99.90
26621;DHT22;14253;44.840;10.444;2023-02-05T18:28:30;4.10;99.90
26621;DHT22;14253;44.840;10.444;2023-02-05T18:31:02;4.00;99.90
26621;DHT22;14253;44.840;10.444;2023-02-05T18:33:28;4.00;99.90
26621;DHT22;14253;44.840;10.444;2023-02-05T18:35:59;4.00;99.90
26621;DHT22;14253;44.840;10.444;2023-02-05T18:38:25;3.90;99.90
26621;DHT22;14253;44.840;10.444;2023-02-05T18:40:51;3.90;99.90
26621;DHT22;14253;44.840;10.444;2023-02-05T18:43:17;3.80;99.90
26621;DHT22;14253;44.840;10.444;2023-02-05T18:45:43;3.80;99.90
26621;DHT22;14253;44.840;10.444;2023-02-05T18:48:09;3.80;99.90
26621;DHT22;14253;44.840;10.444;2023-02-05T18:50:35;3.80;99.90
26621;DHT22;14253;44.840;10.444;2023-02-05T18:53:01;3.80;99.90
26621;DHT22;14253;44.840;10.444;2023-02-05T18:55:27;3.70;99.90
26621;DHT22;14253;44.840;10.444;2023-02-05T18:57:53;3.70;99.90
26621;DHT22;14253;44.840;10.444;2023-02-05T19:00:19;3.70;99.90
26621;DHT22;14253;44.840;10.444;2023-02-05T19:02:51;3.70;99.90
26621;DHT22;14253;44.840;10.444;2023-02-05T19:05:29;3.70;99.90
26621;DHT22;14253;44.840;10.444;2023-02-05T19:08:09;3.70;99.90
26621;DHT22;14253;44.840;10.444;2023-02-05T19:10:56;3.70;99.90
26621;DHT22;14253;44.840;10.444;2023-02-05T19:13:41;3.70;99.90
26621;DHT22;14253;44.840;10.444;2023-02-05T19:16:24;3.70;99.90
26621;DHT22;14253;44.840;10.444;2023-02-05T19:19:06;3.70;99.90
26621;DHT22;14253;44.840;10.444;2023-02-05T19:21:37;3.70;99.90
26621;DHT22;14253;44.840;10.444;2023-02-05T19:24:04;3.70;99.90
26621;DHT22;14253;44.840;10.444;2023-02-05T19:26:36;3.80;99.90
26621;DHT22;14253;44.840;10.444;2023-02-05T19:29:11;3.70;99.90
26621;DHT22;14253;44.840;10.444;2023-02-05T19:31:38;3.70;99.90
26621;DHT22;14253;44.840;10.444;2023-02-05T19:34:04;3.60;99.90
26621;DHT22;14253;44.840;10.444;2023-02-05T19:36:31;3.60;99.90
26621;DHT22;14253;44.840;10.444;2023-02-05T19:38:59;3.60;99.90
26621;DHT22;14253;44.840;10.444;2023-02-05T19:41:27;3.60;99.90
26621;DHT22;14253;44.840;10.444;2023-02-05T19:43:58;3.50;99.90
26621;DHT22;14253;44.840;10.444;2023-02-05T19:46:38;3.40;99.90
26621;DHT22;14253;44.840;10.444;2023-02-05T19:49:13;3.40;99.90
26621;DHT22;14253;44.840;10.444;2023-02-05T19:51:42;3.40;99.90
26621;DHT22;14253;44.840;10.444;2023-02-05T19:54:08;3.50;99.90
26621;DHT22;14253;44.840;10.444;2023-02-05T19:56:34;3.50;99.90
26621;DHT22;14253;44.840;10.444;2023-02-05T19:59:03;3.50;99.90
26621;DHT22;14253;44.840;10.444;2023-02-05T20:01:31;3.50;99.90
26621;DHT22;14253;44.840;10.444;2023-02-05T20:04:11;3.60;99.90
26621;DHT22;14253;44.840;10.444;2023-02-05T20:06:40;3.60;99.90
26621;DHT22;14253;44.840;10.444;2023-02-05T20:09:08;3.60;99.90